メインページ
METAR-TAF:

METAR-TAF

空港 :

帯広駐屯地

十勝帯広, 日本

緯度: 42-54N, 経度: 143-10E, 海抜: 84m

現時点の気象観測

当レポートは7時間41分前の04:30(UTC)に作成
変向風 2kt
気温 17°C
湿度 59%
気圧 1010 hPa
視程10km以上
高度4000ftの雲はほとんどない
高度8000ftの雲は散在している

METAR: RJCT 160430Z VRB02KT 9999 FEW040 SCT080 17/09 Q1010 RMK 1CU040 3AC080 A2983

時間: 21:11 (12:11 UTC)


TAF: 見つかりません

4,000以上の空港の気象観測と天気予報(METAR報とTAF報)

利用可能な観測所は地図上に黄色い丸と赤い丸で示す。

丸の上にカーソルを重ねると観測所名を参照できる。

次にクリックすると気象観測と天気予報を参照できる。

マップの切り替え:黒色「×」印の緑ボタンをクリックして拡大、「-」印の緑ボタンをクリックして縮小、緑色の三角印をクリックして隣りの地図に切り替え


METAR-TAF: